Time;durP1;ratioP1;P1;durP2;ratioP2;P2;SDS_P1;SDS_P2;PMS_P1;PMS_P2;Temp;Humidity;BMP_temperature;BMP_pressure;BME280_temperature;BME280_humidity;BME280_pressure;Samples;Min_cycle;Max_cycle;Signal;HPM_P1;HPM_P2
2022/12/27 00:00:32;;;;;;;0.57;0.40;;;;;;;16.96;62.46;97562.28;10441353;28;20534;-30
2022/12/27 00:05:32;;;;;;;0.30;0.30;;;;;;;17.13;62.36;97588.75;10452830;28;20032;-31
2022/12/27 00:10:33;;;;;;;0.30;0.30;;;;;;;17.18;62.20;97604.03;10436022;28;20831;-30
2022/12/27 00:15:35;;;;;;;0.28;0.28;;;;;;;17.17;61.84;97612.44;10436515;28;20161;-30
2022/12/27 00:20:35;;;;;;;0.40;0.20;;;;;;;17.14;61.95;97614.94;10429077;28;20083;-30
2022/12/27 00:25:35;;;;;;;0.40;0.40;;;;;;;17.07;62.19;97613.09;10429949;28;20064;-31
2022/12/27 00:30:36;;;;;;;0.50;0.40;;;;;;;17.01;62.09;97611.31;10431147;28;20040;-31
2022/12/27 00:35:38;;;;;;;0.30;0.20;;;;;;;17.06;61.99;97617.28;10440971;28;20445;-30
2022/12/27 00:40:39;;;;;;;0.45;0.40;;;;;;;17.05;62.28;97615.59;10431322;28;20037;-30
2022/12/27 00:45:39;;;;;;;0.30;0.28;;;;;;;17.07;61.98;97615.63;10443267;28;20440;-30
2022/12/27 00:50:41;;;;;;;0.20;0.20;;;;;;;17.04;62.19;97611.34;10433385;28;20041;-30
2022/12/27 00:55:43;;;;;;;0.30;0.30;;;;;;;17.06;61.78;97608.84;10440807;28;20496;-30
2022/12/27 01:00:43;;;;;;;0.50;0.30;;;;;;;17.06;61.75;97603.81;10433182;28;20041;-30
2022/12/27 01:05:44;;;;;;;0.33;0.33;;;;;;;17.05;61.73;97608.00;10435629;28;20033;-30
2022/12/27 01:10:44;;;;;;;0.45;0.40;;;;;;;17.00;61.93;97604.50;10434944;28;20033;-31
2022/12/27 01:15:44;;;;;;;0.23;0.20;;;;;;;17.09;61.60;97624.09;10435754;28;20497;-31
2022/12/27 01:20:45;;;;;;;0.30;0.30;;;;;;;17.13;61.83;97625.84;10435090;28;20118;-30
2022/12/27 01:25:45;;;;;;;0.40;0.30;;;;;;;17.15;61.60;97629.28;10435648;28;20033;-31
2022/12/27 01:30:45;;;;;;;0.63;0.40;;;;;;;17.12;61.62;97631.72;10436469;28;20029;-30
2022/12/27 01:35:46;;;;;;;0.20;0.20;;;;;;;17.10;61.29;97630.84;10447073;28;20040;-31
2022/12/27 01:40:46;;;;;;;0.20;0.20;;;;;;;17.08;61.71;97640.09;10443734;28;20029;-30
2022/12/27 01:45:47;;;;;;;0.30;0.20;;;;;;;17.04;61.82;97650.97;10440372;28;20029;-30
2022/12/27 01:50:57;;;;;;;0.22;0.22;;;;;;;17.00;61.56;97650.03;10451770;28;20041;-31
2022/12/27 01:56:04;;;;;;;0.60;0.47;;;;;;;17.02;61.88;97663.59;10449028;28;20477;-30
2022/12/27 02:01:10;;;;;;;0.80;0.43;;;;;;;17.01;61.74;97673.69;10440127;28;20044;-30
2022/12/27 02:06:13;;;;;;;2.20;0.37;;;;;;;17.03;61.95;97674.56;10443135;28;20034;-31
2022/12/27 02:11:16;;;;;;;0.43;0.40;;;;;;;16.99;61.99;97665.22;10440385;28;20033;-30
2022/12/27 02:16:18;;;;;;;0.40;0.40;;;;;;;16.98;61.89;97669.41;10428846;28;20527;-30
2022/12/27 02:21:24;;;;;;;0.40;0.32;;;;;;;16.80;61.75;97655.50;10435490;28;20136;-31
2022/12/27 02:26:49;;;;;;;0.43;0.35;;;;;;;17.00;61.52;97689.69;10440489;28;20710;-30
2022/12/27 02:32:07;;;;;;;0.60;0.30;;;;;;;17.04;61.63;97707.50;10438357;28;20041;-30
2022/12/27 02:37:11;;;;;;;0.20;0.20;;;;;;;17.09;61.52;97710.94;10441549;28;20049;-30
2022/12/27 02:53:08;;;;;;;0.57;0.35;;;;;;;17.05;61.58;97698.19;10437129;28;20508;-31
2022/12/27 02:58:14;;;;;;;0.25;0.25;;;;;;;17.00;61.59;97695.56;10444236;28;20033;-30
2022/12/27 03:03:22;;;;;;;0.35;0.30;;;;;;;16.99;61.70;97698.09;10444415;28;20025;-30
2022/12/27 03:08:33;;;;;;;0.70;0.40;;;;;;;16.97;61.45;97690.47;10452266;28;20040;-31
2022/12/27 03:25:26;;;;;;;0.20;0.17;;;;;;;16.90;61.57;97695.38;10440025;28;20060;-30
2022/12/27 03:35:21;;;;;;;0.20;0.20;;;;;;;16.97;61.44;97709.84;10440532;28;20092;-30
2022/12/27 03:40:34;;;;;;;0.47;0.28;;;;;;;16.94;61.51;97708.13;10439624;28;20033;-30
2022/12/27 03:51:20;;;;;;;0.20;0.20;;;;;;;17.05;61.00;97710.84;10437893;28;20164;-30
2022/12/27 03:56:20;;;;;;;0.30;0.30;;;;;;;17.07;61.36;97722.72;10446459;28;20037;-31
2022/12/27 04:01:21;;;;;;;0.50;0.30;;;;;;;17.06;60.83;97728.59;10435381;28;20102;-30
2022/12/27 04:06:21;;;;;;;0.30;0.30;;;;;;;17.06;61.02;97732.84;10436665;28;20037;-30
2022/12/27 04:37:55;;;;;;;0.43;0.30;;;;;;;16.98;60.81;97716.63;10437293;28;20048;-30
2022/12/27 05:04:11;;;;;;;0.20;0.20;;;;;;;17.09;60.34;97720.22;10431944;28;20116;-31
2022/12/27 05:14:31;;;;;;;0.32;0.20;;;;;;;17.13;60.11;97725.38;10442891;28;20468;-30
2022/12/27 05:19:31;;;;;;;0.43;0.27;;;;;;;17.06;59.73;97721.00;10440984;28;20041;-30
2022/12/27 05:29:50;;;;;;;0.30;0.20;;;;;;;17.08;60.64;97738.78;10426951;28;20413;-30
2022/12/27 05:34:51;;;;;;;0.20;0.20;;;;;;;17.15;59.68;97730.50;10443526;28;20040;-31
2022/12/27 05:39:51;;;;;;;2.13;0.20;;;;;;;17.12;59.63;97730.41;10442484;28;20062;-30
2022/12/27 05:44:51;;;;;;;4.93;1.03;;;;;;;16.87;58.95;97738.28;10432541;28;20052;-30
2022/12/27 05:49:52;;;;;;;2.03;0.73;;;;;;;16.94;59.66;97742.66;10442268;28;20037;-30
2022/12/27 05:54:52;;;;;;;4.63;1.00;;;;;;;16.94;59.76;97745.19;10430223;28;20059;-29
2022/12/27 05:59:52;;;;;;;8.17;2.03;;;;;;;16.90;60.15;97739.22;10434642;28;20029;-30
2022/12/27 06:04:53;;;;;;;2.93;1.13;;;;;;;16.92;60.32;97747.69;10430179;28;20048;-30
2022/12/27 06:09:53;;;;;;;3.47;1.27;;;;;;;16.94;60.69;97755.31;10428360;28;20790;-29
2022/12/27 06:14:53;;;;;;;4.97;1.90;;;;;;;16.93;60.65;97753.59;10447473;28;20178;-29
2022/12/27 06:19:54;;;;;;;3.90;1.40;;;;;;;16.94;60.95;97756.19;10442097;28;20075;-31
2022/12/27 06:24:54;;;;;;;3.53;1.50;;;;;;;16.99;60.94;97759.66;10443922;28;20040;-30
2022/12/27 06:29:54;;;;;;;4.80;0.90;;;;;;;17.02;60.45;97763.94;10445901;28;20299;-30
2022/12/27 06:34:55;;;;;;;3.60;1.03;;;;;;;16.95;61.15;97768.00;10447328;28;20374;-30
2022/12/27 06:39:56;;;;;;;2.45;0.80;;;;;;;16.93;61.44;97771.31;10440769;28;20032;-31
2022/12/27 06:44:57;;;;;;;1.58;0.95;;;;;;;16.88;61.54;97775.41;10434242;28;20065;-30
2022/12/27 06:49:57;;;;;;;1.87;0.83;;;;;;;16.89;61.50;97779.66;10436479;28;20119;-30
2022/12/27 06:54:57;;;;;;;3.77;0.80;;;;;;;16.85;61.68;97780.41;10440489;28;20072;-31
2022/12/27 06:59:58;;;;;;;2.40;0.80;;;;;;;16.86;61.52;97779.56;10438094;28;20287;-30
2022/12/27 07:04:58;;;;;;;1.20;0.80;;;;;;;16.80;61.96;97772.72;10446106;28;20078;-31
2022/12/27 07:09:58;;;;;;;1.73;0.80;;;;;;;16.82;62.00;97790.47;10442896;28;20033;-30
2022/12/27 07:14:59;;;;;;;2.50;0.80;;;;;;;16.82;62.12;97791.28;10439386;28;20048;-30
2022/12/27 07:19:59;;;;;;;2.23;0.97;;;;;;;16.84;61.75;97797.22;10447527;28;20029;-31
2022/12/27 07:24:59;;;;;;;1.63;0.70;;;;;;;16.81;61.89;97794.66;10441034;28;20095;-30
2022/12/27 07:30:00;;;;;;;2.13;0.70;;;;;;;16.70;61.70;97787.63;10447012;28;20412;-29
2022/12/27 07:35:00;;;;;;;1.23;0.90;;;;;;;16.83;62.00;97814.94;10446253;28;20558;-30
2022/12/27 07:40:00;;;;;;;1.47;0.60;;;;;;;16.91;62.10;97810.91;10445150;28;20473;-30
2022/12/27 07:45:01;;;;;;;2.10;0.77;;;;;;;16.94;61.96;97826.13;10440407;28;20048;-30
2022/12/27 07:50:01;;;;;;;1.17;0.70;;;;;;;16.87;62.29;97827.69;10436275;28;20480;-30
2022/12/27 07:55:02;;;;;;;1.40;0.57;;;;;;;16.86;62.67;97837.75;10437652;28;20048;-31
2022/12/27 08:00:03;;;;;;;1.67;0.70;;;;;;;16.82;62.67;97841.03;10435804;28;20029;-30
2022/12/27 08:05:12;;;;;;;1.55;0.57;;;;;;;16.80;62.53;97830.88;10434320;28;20063;-30
2022/12/27 08:10:12;;;;;;;1.33;0.55;;;;;;;16.79;62.80;97833.34;10441942;28;20033;-30
2022/12/27 08:15:12;;;;;;;1.07;0.60;;;;;;;16.79;62.65;97829.16;10444083;28;20021;-30
2022/12/27 08:20:13;;;;;;;1.03;0.60;;;;;;;16.76;62.67;97825.72;10437297;28;20090;-30
2022/12/27 08:25:14;;;;;;;1.13;0.60;;;;;;;16.73;62.99;97818.06;10439343;28;20295;-31
2022/12/27 08:30:14;;;;;;;1.27;0.43;;;;;;;16.77;62.54;97822.34;10439535;28;20086;-30
2022/12/27 08:35:15;;;;;;;0.63;0.60;;;;;;;16.76;62.69;97825.72;10441951;28;20523;-30
2022/12/27 08:40:16;;;;;;;2.22;0.55;;;;;;;16.77;62.62;97827.41;10441001;28;20816;-31
2022/12/27 08:45:17;;;;;;;1.00;0.63;;;;;;;16.65;62.82;97817.00;10439751;28;20037;-32
2022/12/27 08:50:17;;;;;;;0.97;0.60;;;;;;;16.75;62.62;97826.53;10439460;28;20569;-30
2022/12/27 08:55:17;;;;;;;1.23;0.80;;;;;;;16.85;62.77;97838.56;10438284;28;20422;-30
2022/12/27 09:00:18;;;;;;;0.77;0.60;;;;;;;16.88;62.52;97841.16;10440951;28;20631;-30
2022/12/27 09:05:19;;;;;;;1.50;0.68;;;;;;;16.86;62.39;97832.69;10432254;28;20302;-30
2022/12/27 09:10:20;;;;;;;0.75;0.60;;;;;;;16.81;62.50;97829.22;10439717;28;20485;-30
2022/12/27 09:15:21;;;;;;;1.67;0.85;;;;;;;16.76;62.60;97830.75;10432206;28;20512;-30
2022/12/27 09:20:21;;;;;;;1.00;0.87;;;;;;;16.76;62.05;97835.81;10435705;28;20032;-30
2022/12/27 09:25:21;;;;;;;0.75;0.60;;;;;;;16.73;62.12;97826.47;10437962;28;20029;-30
2022/12/27 09:30:22;;;;;;;2.13;0.80;;;;;;;16.75;62.00;97834.13;10441825;28;20063;-30
2022/12/27 09:35:22;;;;;;;0.70;0.50;;;;;;;16.73;62.41;97835.75;10440198;28;20116;-31
2022/12/27 09:40:22;;;;;;;1.13;0.60;;;;;;;16.76;62.05;97830.75;10437626;28;20017;-30
2022/12/27 09:45:44;;;;;;;0.50;0.50;;;;;;;16.75;62.09;97834.13;10429698;28;20280;-30
2022/12/27 09:50:51;;;;;;;0.60;0.40;;;;;;;16.74;62.22;97832.41;10445798;28;20056;-31
2022/12/27 09:55:54;;;;;;;0.77;0.57;;;;;;;16.76;62.14;97835.81;10443499;28;20078;-29
2022/12/27 10:00:54;;;;;;;0.77;0.47;;;;;;;16.73;62.11;97825.66;10446309;28;20496;-30
2022/12/27 10:06:27;;;;;;;0.77;0.40;;;;;;;16.73;61.52;97820.59;10447720;28;20040;-30
2022/12/27 10:11:48;;;;;;;1.50;0.60;;;;;;;16.75;62.39;97808.81;10438793;28;20303;-30
2022/12/27 10:16:58;;;;;;;1.38;0.68;;;;;;;16.82;61.67;97810.69;10425800;28;20041;-30
2022/12/27 10:22:21;;;;;;;1.27;0.60;;;;;;;16.81;62.05;97808.97;10450397;28;20033;-30
2022/12/27 10:27:27;;;;;;;0.85;0.60;;;;;;;16.74;61.96;97807.13;10436185;28;20052;-30
2022/12/27 10:32:27;;;;;;;0.70;0.60;;;;;;;16.73;61.48;97797.84;10447678;28;20083;-30
2022/12/27 10:37:28;;;;;;;0.55;0.43;;;;;;;16.73;61.46;97801.19;10448147;28;20416;-30
2022/12/27 10:42:37;;;;;;;0.70;0.50;;;;;;;16.65;61.68;97794.25;10436609;28;20035;-30
2022/12/27 10:47:37;;;;;;;0.52;0.35;;;;;;;16.72;61.55;97793.59;10444555;28;20290;-31
2022/12/27 10:52:38;;;;;;;0.93;0.60;;;;;;;16.72;61.62;97798.66;10443076;28;20040;-30
2022/12/27 10:57:38;;;;;;;0.50;0.40;;;;;;;16.69;61.56;97797.72;10439844;28;20116;-32
2022/12/27 11:02:57;;;;;;;1.43;0.83;;;;;;;16.65;61.72;97796.78;10443524;28;20027;-30
2022/12/27 11:07:57;;;;;;;1.75;0.52;;;;;;;16.66;61.36;97793.44;10437757;28;20071;-30
2022/12/27 11:13:02;;;;;;;1.20;0.60;;;;;;;16.67;61.36;97802.72;10448128;28;20474;-30
2022/12/27 11:18:09;;;;;;;0.90;0.60;;;;;;;16.63;61.48;97795.03;10440188;28;20120;-30
2022/12/27 11:23:15;;;;;;;0.85;0.50;;;;;;;16.67;61.15;97800.19;10442176;28;20039;-31
2022/12/27 11:28:32;;;;;;;0.47;0.40;;;;;;;16.69;61.88;97801.09;10439000;28;20110;-30
2022/12/27 11:33:46;;;;;;;1.27;0.45;;;;;;;16.76;61.58;97797.88;10430943;28;20037;-30
2022/12/27 11:38:49;;;;;;;0.60;0.50;;;;;;;16.79;61.03;97790.38;10445877;28;20069;-31
2022/12/27 11:43:56;;;;;;;0.60;0.50;;;;;;;16.74;61.23;97791.94;10434928;28;20068;-30
2022/12/27 11:48:57;;;;;;;0.52;0.38;;;;;;;16.70;60.91;97786.78;10436475;28;20036;-30
2022/12/27 11:54:01;;;;;;;0.60;0.40;;;;;;;16.69;60.83;97777.50;10437562;28;20094;-31
2022/12/27 11:59:24;;;;;;;0.57;0.38;;;;;;;16.66;60.76;97780.78;10443790;28;20032;-30
2022/12/27 12:04:42;;;;;;;0.82;0.55;;;;;;;16.65;60.59;97766.44;10444492;28;20032;-30
2022/12/27 12:10:03;;;;;;;0.52;0.52;;;;;;;16.64;60.88;97763.88;10433478;28;20036;-30
2022/12/27 12:15:22;;;;;;;0.90;0.50;;;;;;;16.66;60.99;97765.63;10419814;28;20045;-30
2022/12/27 12:20:40;;;;;;;0.80;0.60;;;;;;;16.64;60.91;97764.75;10442619;28;20253;-30
2022/12/27 12:26:07;;;;;;;0.90;0.52;;;;;;;16.66;60.67;97767.28;10430158;28;20588;-30
2022/12/27 12:31:38;;;;;;;0.80;0.70;;;;;;;16.64;60.38;97758.81;10433805;28;20045;-30
2022/12/27 12:36:46;;;;;;;0.70;0.50;;;;;;;16.62;60.96;97763.81;10442786;28;20037;-30
2022/12/27 12:41:58;;;;;;;0.85;0.50;;;;;;;16.62;60.93;97760.47;10437567;28;20051;-30
2022/12/27 12:47:28;;;;;;;0.85;0.60;;;;;;;16.60;61.16;97752.00;10442035;28;20040;-30
2022/12/27 12:53:10;;;;;;;0.55;0.50;;;;;;;16.74;61.19;97741.38;10437915;28;20048;-30
2022/12/27 12:58:36;;;;;;;0.40;0.40;;;;;;;16.75;60.79;97748.13;10433853;28;20691;-30
2022/12/27 13:03:54;;;;;;;0.88;0.57;;;;;;;16.68;60.84;97748.81;10440114;28;20028;-30
2022/12/27 13:09:08;;;;;;;0.77;0.43;;;;;;;16.63;60.47;97742.78;10434696;28;20386;-30
2022/12/27 13:14:46;;;;;;;0.38;0.38;;;;;;;16.64;60.48;97747.03;10430319;28;20095;-30
2022/12/27 13:20:21;;;;;;;0.40;0.40;;;;;;;16.64;60.68;97743.66;10437591;28;20037;-30
2022/12/27 13:25:34;;;;;;;0.43;0.43;;;;;;;16.62;60.63;97751.19;10446094;28;20071;-31
2022/12/27 13:31:16;;;;;;;0.68;0.35;;;;;;;16.61;60.44;97746.94;10432731;28;20029;-30
2022/12/27 13:36:41;;;;;;;0.40;0.30;;;;;;;16.61;60.60;97738.53;10429884;28;20128;-30
2022/12/27 13:41:47;;;;;;;0.40;0.30;;;;;;;16.59;60.15;97735.94;10439015;28;20028;-30
2022/12/27 13:46:56;;;;;;;0.60;0.38;;;;;;;16.61;60.46;97738.53;10449905;28;20049;-30
2022/12/27 13:52:15;;;;;;;0.50;0.45;;;;;;;16.61;60.27;97746.13;10444811;28;20051;-30
2022/12/27 13:57:43;;;;;;;0.73;0.38;;;;;;;16.60;60.29;97737.66;10446979;28;20029;-30
2022/12/27 14:03:05;;;;;;;0.20;0.20;;;;;;;16.59;60.00;97741.00;10449328;28;20112;-30
2022/12/27 14:08:48;;;;;;;0.50;0.40;;;;;;;16.66;61.11;97742.88;10444511;28;20076;-32
2022/12/27 14:13:50;;;;;;;0.43;0.30;;;;;;;16.70;60.52;97739.56;10447053;28;20041;-30
2022/12/27 14:18:59;;;;;;;1.17;0.47;;;;;;;16.69;60.61;97737.88;10441239;28;20040;-30
2022/12/27 14:24:20;;;;;;;0.50;0.40;;;;;;;16.61;60.51;97739.38;10443307;28;20025;-29
2022/12/27 14:29:31;;;;;;;0.68;0.50;;;;;;;16.59;60.37;97741.00;10441909;28;20044;-30
2022/12/27 14:34:50;;;;;;;0.77;0.55;;;;;;;16.49;60.17;97718.00;10438895;28;20044;-30
2022/12/27 14:40:19;;;;;;;0.50;0.40;;;;;;;16.54;60.00;97724.88;10446702;28;20082;-30
2022/12/27 14:45:31;;;;;;;0.50;0.40;;;;;;;16.52;60.33;97723.16;10443854;28;20035;-30
2022/12/27 14:50:50;;;;;;;1.38;0.52;;;;;;;16.55;60.06;97733.31;10440730;28;20029;-31
2022/12/27 14:56:02;;;;;;;0.90;0.40;;;;;;;16.56;60.14;97728.31;10444949;28;20036;-30
2022/12/27 15:01:19;;;;;;;0.65;0.50;;;;;;;16.52;60.20;97723.97;10432361;28;20020;-30
2022/12/27 15:06:31;;;;;;;1.17;0.65;;;;;;;16.54;60.26;97724.03;10439932;28;20033;-30
2022/12/27 15:11:54;;;;;;;0.68;0.50;;;;;;;16.53;60.04;97709.69;10449272;28;20025;-30
2022/12/27 15:16:57;;;;;;;0.88;0.47;;;;;;;16.51;60.32;97717.22;10445070;28;20037;-30
2022/12/27 15:22:14;;;;;;;0.40;0.40;;;;;;;16.52;60.66;97718.09;10437498;28;20025;-31
2022/12/27 15:27:42;;;;;;;0.55;0.30;;;;;;;16.60;60.72;97712.38;10439130;28;20047;-30
2022/12/27 15:32:51;;;;;;;0.35;0.30;;;;;;;16.66;60.22;97712.53;10433354;28;20033;-30
2022/12/27 15:38:01;;;;;;;0.30;0.30;;;;;;;16.62;60.14;97715.78;10446150;28;20424;-30
2022/12/27 15:43:24;;;;;;;0.70;0.50;;;;;;;16.56;59.97;97705.56;10433033;28;20024;-30
2022/12/27 15:48:42;;;;;;;0.60;0.30;;;;;;;16.51;60.31;97681.84;10423314;28;20033;-30
2022/12/27 15:54:06;;;;;;;1.10;0.50;;;;;;;16.51;59.98;97674.25;10434055;28;20029;-30
2022/12/27 15:59:34;;;;;;;0.52;0.52;;;;;;;16.50;59.81;97675.06;10437784;28;20025;-29
2022/12/27 16:04:46;;;;;;;0.40;0.40;;;;;;;16.49;60.28;97670.84;10427389;28;20025;-29
2022/12/27 16:09:46;;;;;;;0.40;0.38;;;;;;;16.43;60.24;97658.06;10434636;28;20039;-30
2022/12/27 16:14:47;;;;;;;0.30;0.30;;;;;;;16.49;60.10;97668.31;10444336;28;20048;-30
2022/12/27 16:20:22;;;;;;;0.65;0.40;;;;;;;16.40;60.13;97667.25;10473481;27;20494;-27
2022/12/27 16:25:25;;;;;;;0.60;0.50;;;;;;;16.47;60.06;97676.69;10429219;27;20508;-28
2022/12/27 16:30:40;;;;;;;1.13;0.50;;;;;;;16.35;60.12;97669.63;10427089;28;20094;-28
2022/12/27 16:35:40;;;;;;;0.70;0.50;;;;;;;16.46;60.30;97693.50;10435621;28;20037;-27
2022/12/27 16:40:47;;;;;;;0.53;0.43;;;;;;;16.45;60.35;97696.84;10428535;28;20511;-27
2022/12/27 16:46:06;;;;;;;0.40;0.30;;;;;;;16.59;59.55;97690.44;10425584;28;20386;-28
2022/12/27 16:51:32;;;;;;;0.60;0.50;;;;;;;16.64;60.11;97691.41;10428350;28;20040;-28
2022/12/27 16:56:35;;;;;;;0.70;0.50;;;;;;;16.69;59.59;97683.94;10417729;28;20040;-28
2022/12/27 17:01:41;;;;;;;0.75;0.75;;;;;;;16.73;59.39;97694.16;10427671;28;20127;-29
2022/12/27 17:06:42;;;;;;;1.37;0.60;;;;;;;16.83;58.96;97701.13;10439549;28;20434;-29
2022/12/27 17:11:48;;;;;;;0.50;0.40;;;;;;;16.79;58.94;97682.50;10427949;28;20291;-28
2022/12/27 17:16:52;;;;;;;0.82;0.50;;;;;;;16.87;58.62;97693.63;10430708;27;20295;-31
2022/12/27 17:22:03;;;;;;;0.82;0.50;;;;;;;16.87;58.40;97692.75;10432326;27;20500;-31
2022/12/27 17:27:50;;;;;;;0.52;0.40;;;;;;;16.89;58.36;97686.09;10419135;28;20030;-31
2022/12/27 17:32:59;;;;;;;0.50;0.50;;;;;;;16.89;58.21;97670.91;10393326;28;20419;-30
2022/12/27 17:38:17;;;;;;;0.68;0.50;;;;;;;16.86;58.31;97670.81;10405843;28;20042;-30
2022/12/27 17:48:54;;;;;;;0.90;0.60;;;;;;;16.84;58.19;97663.19;10375194;28;20046;-30
2022/12/27 17:59:26;;;;;;;0.90;0.60;;;;;;;16.84;58.02;97658.13;10397636;28;20563;-31
2022/12/27 18:04:30;;;;;;;0.80;0.57;;;;;;;16.91;58.49;97662.50;10397681;28;20060;-30
2022/12/27 18:09:51;;;;;;;0.80;0.70;;;;;;;16.81;58.29;97652.19;10405583;28;20125;-30
2022/12/27 18:15:08;;;;;;;0.65;0.60;;;;;;;16.90;58.07;97658.28;10395297;28;20037;-31
2022/12/27 18:20:27;;;;;;;0.68;0.60;;;;;;;16.93;58.26;97640.66;10403849;28;20037;-31
2022/12/27 18:25:41;;;;;;;0.82;0.80;;;;;;;16.91;57.84;97634.69;10403274;27;20448;-31
2022/12/27 18:30:47;;;;;;;3.97;0.77;;;;;;;16.80;57.82;97635.28;10447301;27;20056;-30
2022/12/27 18:35:50;;;;;;;2.65;0.75;;;;;;;16.91;57.89;97643.97;10476795;27;20495;-30
2022/12/27 18:41:18;;;;;;;1.60;0.50;;;;;;;16.94;58.07;97626.31;10473065;27;20042;-30
2022/12/27 18:46:27;;;;;;;2.60;0.63;;;;;;;16.94;57.96;97628.84;10400769;28;20057;-30
2022/12/27 18:51:35;;;;;;;2.50;0.50;;;;;;;16.89;57.89;97602.63;10416315;27;20543;-31
2022/12/27 18:56:36;;;;;;;4.45;0.88;;;;;;;16.94;57.53;97604.41;10479034;27;20030;-31
2022/12/27 19:01:40;;;;;;;4.85;1.02;;;;;;;16.95;58.01;97611.16;10462924;27;20037;-30
2022/12/27 19:06:46;;;;;;;4.68;0.88;;;;;;;16.90;57.81;97601.78;10399678;28;20033;-31
2022/12/27 19:11:56;;;;;;;1.20;0.67;;;;;;;16.96;57.81;97628.06;10394033;28;20089;-31
2022/12/27 19:16:59;;;;;;;3.38;0.93;;;;;;;16.98;58.20;97620.50;10395015;28;20407;-32
2022/12/27 19:21:59;;;;;;;2.25;0.90;;;;;;;16.99;58.09;97624.75;10395619;28;20038;-31
2022/12/27 19:27:14;;;;;;;1.20;0.77;;;;;;;16.99;57.77;97612.09;10396187;28;20029;-31
2022/12/27 19:32:16;;;;;;;2.58;0.55;;;;;;;16.99;58.00;97612.09;10390673;28;20292;-30
2022/12/27 19:37:17;;;;;;;1.52;0.60;;;;;;;16.93;57.73;97600.19;10396616;28;20072;-30
2022/12/27 19:42:26;;;;;;;0.88;0.43;;;;;;;16.96;58.03;97606.94;10392741;28;20461;-31
2022/12/27 19:47:27;;;;;;;0.82;0.50;;;;;;;16.94;57.75;97601.00;10389500;28;20487;-31
2022/12/27 19:52:27;;;;;;;0.98;0.68;;;;;;;16.92;58.15;97592.56;10430121;27;20037;-30
2022/12/27 19:57:28;;;;;;;0.95;0.47;;;;;;;16.93;58.09;97576.53;10517759;27;20485;-30
2022/12/27 20:02:28;;;;;;;1.60;0.80;;;;;;;16.91;58.49;97580.72;10400783;27;20041;-31
2022/12/27 20:07:29;;;;;;;1.07;0.87;;;;;;;16.84;58.56;97567.09;10403577;28;20402;-31
2022/12/27 20:12:30;;;;;;;1.45;0.60;;;;;;;16.86;57.92;97570.53;10391859;28;20048;-30
2022/12/27 20:17:31;;;;;;;0.97;0.63;;;;;;;16.82;57.83;97567.91;10396820;28;20037;-30
2022/12/27 20:22:31;;;;;;;1.17;0.60;;;;;;;16.81;57.79;97576.31;10395557;28;20124;-30
2022/12/27 20:27:32;;;;;;;1.00;0.60;;;;;;;16.85;57.62;97565.44;10395173;28;20044;-31
2022/12/27 20:32:32;;;;;;;0.87;0.50;;;;;;;16.83;57.52;97562.03;10395305;28;20036;-30
2022/12/27 20:37:32;;;;;;;0.63;0.60;;;;;;;16.82;57.53;97565.38;10394888;28;20344;-30
2022/12/27 20:42:33;;;;;;;1.20;0.70;;;;;;;16.79;57.62;97570.34;10392811;28;20049;-32
2022/12/27 20:47:33;;;;;;;0.70;0.70;;;;;;;16.77;57.52;97568.63;10387973;28;20038;-31
2022/12/27 20:52:37;;;;;;;1.42;0.60;;;;;;;16.78;56.79;97559.41;10399831;28;20109;-31
2022/12/27 20:57:41;;;;;;;1.13;0.68;;;;;;;16.82;55.76;97552.72;10390134;28;20546;-30
2022/12/27 21:02:41;;;;;;;0.88;0.60;;;;;;;16.82;57.00;97558.63;10392494;28;20045;-31
2022/12/27 21:07:42;;;;;;;1.73;0.80;;;;;;;16.79;56.39;97545.94;10400844;28;20414;-31
2022/12/27 21:12:42;;;;;;;0.70;0.50;;;;;;;16.85;56.18;97542.66;10397782;28;20300;-31
2022/12/27 21:17:42;;;;;;;0.93;0.70;;;;;;;16.77;56.21;97534.06;10403551;28;20544;-31
2022/12/27 21:22:43;;;;;;;1.20;0.70;;;;;;;16.77;56.42;97534.06;10393970;28;20624;-29
2022/12/27 21:27:43;;;;;;;2.65;0.85;;;;;;;16.80;56.32;97550.16;10399897;28;20068;-30
2022/12/27 21:32:44;;;;;;;0.93;0.77;;;;;;;16.77;56.57;97549.25;10394559;28;20476;-28
2022/12/27 21:37:44;;;;;;;0.97;0.70;;;;;;;16.76;56.28;97529.84;10398394;28;20529;-28
2022/12/27 21:42:44;;;;;;;0.60;0.40;;;;;;;16.75;55.79;97530.66;10394854;28;20499;-28
2022/12/27 21:47:45;;;;;;;1.70;0.50;;;;;;;16.77;56.53;97523.97;10391383;28;20303;-30
2022/12/27 21:52:45;;;;;;;1.80;0.82;;;;;;;16.78;56.37;97538.31;10396456;28;20041;-28
2022/12/27 21:57:45;;;;;;;2.00;0.60;;;;;;;16.75;56.32;97538.25;10396885;28;20036;-29
2022/12/27 22:02:48;;;;;;;0.50;0.40;;;;;;;16.74;56.24;97521.38;10400060;28;20132;-30
2022/12/27 22:07:49;;;;;;;1.67;0.73;;;;;;;16.70;56.50;97514.53;10453800;27;20027;-27
2022/12/27 22:12:49;;;;;;;1.53;0.80;;;;;;;16.69;56.36;97515.38;10489504;27;20033;-28
2022/12/27 22:17:50;;;;;;;1.08;0.70;;;;;;;16.67;56.32;97521.22;10448875;27;20187;-28
2022/12/27 22:22:50;;;;;;;0.83;0.60;;;;;;;16.63;56.42;97497.53;10428071;27;20509;-29
2022/12/27 22:27:50;;;;;;;2.93;0.90;;;;;;;16.63;56.69;97515.25;10403632;27;20031;-28
2022/12/27 22:32:51;;;;;;;2.27;0.67;;;;;;;16.64;57.09;97516.09;10500709;27;20505;-35
2022/12/27 22:37:51;;;;;;;2.30;0.77;;;;;;;16.62;56.63;97513.53;10430331;27;20030;-28
2022/12/27 22:42:54;;;;;;;1.07;0.90;;;;;;;16.59;56.79;97513.50;10395843;28;20331;-28
2022/12/27 22:47:56;;;;;;;2.53;1.02;;;;;;;16.58;56.87;97495.75;10398843;28;20027;-29
2022/12/27 22:52:56;;;;;;;2.70;0.90;;;;;;;16.59;56.88;97497.44;10397482;28;20880;-30
2022/12/27 22:57:56;;;;;;;3.60;0.83;;;;;;;16.59;56.54;97500.84;10399825;28;20036;-30
2022/12/27 23:02:57;;;;;;;1.13;0.77;;;;;;;16.61;56.50;97490.78;10401886;28;20037;-30
2022/12/27 23:07:57;;;;;;;1.50;0.53;;;;;;;16.63;56.10;97492.47;10407644;28;20078;-29
2022/12/27 23:12:58;;;;;;;1.40;0.60;;;;;;;16.62;56.41;97495.00;10395597;28;20814;-29
2022/12/27 23:17:58;;;;;;;3.40;0.70;;;;;;;16.64;56.33;97481.59;10394807;28;20398;-30
2022/12/27 23:22:58;;;;;;;3.53;0.88;;;;;;;16.61;56.51;97480.66;10400405;28;20036;-30
2022/12/27 23:27:59;;;;;;;1.05;0.60;;;;;;;16.59;56.63;97483.16;10396445;28;20471;-29
2022/12/27 23:32:59;;;;;;;0.97;0.70;;;;;;;16.58;56.36;97481.44;10395496;28;20033;-30
2022/12/27 23:38:03;;;;;;;0.90;0.60;;;;;;;16.56;56.58;97478.06;10397904;28;20045;-29
2022/12/27 23:43:03;;;;;;;0.80;0.70;;;;;;;16.44;56.12;97452.50;10391921;28;20646;-30
2022/12/27 23:48:04;;;;;;;1.67;0.60;;;;;;;16.53;56.54;97461.97;10395064;28;20026;-29
2022/12/27 23:53:04;;;;;;;1.70;0.50;;;;;;;16.51;56.04;97454.34;10397071;28;20037;-29
2022/12/27 23:58:04;;;;;;;0.50;0.40;;;;;;;16.51;56.42;97449.28;10395867;28;20094;-29
